sensor_id;sensor_type;location;lat;lon;timestamp;temperature;humidity
27667;DHT22;15074;50.940;5.282;2023-08-06T00:00:25;14.30;99.90
27667;DHT22;15074;50.940;5.282;2023-08-06T00:02:51;14.30;99.90
27667;DHT22;15074;50.940;5.282;2023-08-06T00:05:17;14.40;99.90
27667;DHT22;15074;50.940;5.282;2023-08-06T00:07:49;14.40;99.90
27667;DHT22;15074;50.940;5.282;2023-08-06T00:10:15;14.40;99.90
27667;DHT22;15074;50.940;5.282;2023-08-06T00:12:41;14.50;99.90
27667;DHT22;15074;50.940;5.282;2023-08-06T00:15:07;14.40;99.90
27667;DHT22;15074;50.940;5.282;2023-08-06T00:17:33;14.40;99.90
27667;DHT22;15074;50.940;5.282;2023-08-06T00:19:59;14.40;99.90
27667;DHT22;15074;50.940;5.282;2023-08-06T00:22:36;14.40;99.90
27667;DHT22;15074;50.940;5.282;2023-08-06T00:25:03;14.50;99.90
27667;DHT22;15074;50.940;5.282;2023-08-06T00:27:29;14.40;99.90
27667;DHT22;15074;50.940;5.282;2023-08-06T00:29:54;14.40;99.90
27667;DHT22;15074;50.940;5.282;2023-08-06T00:32:21;14.50;99.90
27667;DHT22;15074;50.940;5.282;2023-08-06T00:34:47;14.50;99.90
27667;DHT22;15074;50.940;5.282;2023-08-06T00:37:15;14.50;99.90
27667;DHT22;15074;50.940;5.282;2023-08-06T00:39:42;14.50;99.90
27667;DHT22;15074;50.940;5.282;2023-08-06T00:42:08;14.50;99.90
27667;DHT22;15074;50.940;5.282;2023-08-06T00:44:33;14.50;99.90
27667;DHT22;15074;50.940;5.282;2023-08-06T00:46:59;14.50;99.90
27667;DHT22;15074;50.940;5.282;2023-08-06T00:49:24;14.50;99.90
27667;DHT22;15074;50.940;5.282;2023-08-06T00:51:51;14.50;99.90
27667;DHT22;15074;50.940;5.282;2023-08-06T00:54:17;14.40;99.90
27667;DHT22;15074;50.940;5.282;2023-08-06T00:56:42;14.50;99.90
27667;DHT22;15074;50.940;5.282;2023-08-06T00:59:09;14.50;99.90
27667;DHT22;15074;50.940;5.282;2023-08-06T01:01:35;14.50;99.90
27667;DHT22;15074;50.940;5.282;2023-08-06T01:04:01;14.50;99.90
27667;DHT22;15074;50.940;5.282;2023-08-06T01:09:13;14.60;99.90
27667;DHT22;15074;50.940;5.282;2023-08-06T01:11:57;14.60;99.90
27667;DHT22;15074;50.940;5.282;2023-08-06T01:14:44;14.50;99.90
27667;DHT22;15074;50.940;5.282;2023-08-06T01:17:12;14.60;99.90
27667;DHT22;15074;50.940;5.282;2023-08-06T01:19:38;14.60;99.90
27667;DHT22;15074;50.940;5.282;2023-08-06T01:22:04;14.50;99.90
27667;DHT22;15074;50.940;5.282;2023-08-06T01:24:30;14.50;99.90
27667;DHT22;15074;50.940;5.282;2023-08-06T01:27:09;14.50;99.90
27667;DHT22;15074;50.940;5.282;2023-08-06T01:29:47;14.50;99.90
27667;DHT22;15074;50.940;5.282;2023-08-06T01:32:14;14.40;99.90
27667;DHT22;15074;50.940;5.282;2023-08-06T01:34:43;14.50;99.90
27667;DHT22;15074;50.940;5.282;2023-08-06T01:37:09;14.50;99.90
27667;DHT22;15074;50.940;5.282;2023-08-06T01:39:35;14.50;99.90
27667;DHT22;15074;50.940;5.282;2023-08-06T01:42:01;14.50;99.90
27667;DHT22;15074;50.940;5.282;2023-08-06T01:44:27;14.50;99.90
27667;DHT22;15074;50.940;5.282;2023-08-06T01:46:53;14.60;99.90
27667;DHT22;15074;50.940;5.282;2023-08-06T01:49:18;14.60;99.90
27667;DHT22;15074;50.940;5.282;2023-08-06T01:51:44;14.60;99.90
27667;DHT22;15074;50.940;5.282;2023-08-06T01:54:09;14.60;99.90
27667;DHT22;15074;50.940;5.282;2023-08-06T01:56:35;14.60;99.90
27667;DHT22;15074;50.940;5.282;2023-08-06T01:59:01;14.70;99.90
27667;DHT22;15074;50.940;5.282;2023-08-06T02:01:26;14.70;99.90
27667;DHT22;15074;50.940;5.282;2023-08-06T02:03:52;14.80;99.90
27667;DHT22;15074;50.940;5.282;2023-08-06T02:06:18;14.80;99.90
27667;DHT22;15074;50.940;5.282;2023-08-06T02:08:43;14.70;99.90
27667;DHT22;15074;50.940;5.282;2023-08-06T02:11:09;14.70;99.90
27667;DHT22;15074;50.940;5.282;2023-08-06T02:13:34;14.80;99.90
27667;DHT22;15074;50.940;5.282;2023-08-06T02:16:00;14.70;99.90
27667;DHT22;15074;50.940;5.282;2023-08-06T02:18:26;14.60;99.90
27667;DHT22;15074;50.940;5.282;2023-08-06T02:20:58;14.70;99.90
27667;DHT22;15074;50.940;5.282;2023-08-06T02:23:24;14.70;99.90
27667;DHT22;15074;50.940;5.282;2023-08-06T02:26:00;14.70;99.90
27667;DHT22;15074;50.940;5.282;2023-08-06T02:28:26;14.80;99.90
27667;DHT22;15074;50.940;5.282;2023-08-06T02:30:52;14.70;99.90
27667;DHT22;15074;50.940;5.282;2023-08-06T02:33:18;14.70;99.90
27667;DHT22;15074;50.940;5.282;2023-08-06T02:35:43;14.70;99.90
27667;DHT22;15074;50.940;5.282;2023-08-06T02:38:09;14.80;99.90
27667;DHT22;15074;50.940;5.282;2023-08-06T02:40:35;14.80;99.90
27667;DHT22;15074;50.940;5.282;2023-08-06T02:43:00;14.80;99.90
27667;DHT22;15074;50.940;5.282;2023-08-06T02:45:26;14.80;99.90
27667;DHT22;15074;50.940;5.282;2023-08-06T02:47:52;14.90;99.90
27667;DHT22;15074;50.940;5.282;2023-08-06T02:50:17;14.80;99.90
27667;DHT22;15074;50.940;5.282;2023-08-06T02:52:43;14.80;99.90
27667;DHT22;15074;50.940;5.282;2023-08-06T02:55:08;14.80;99.90
27667;DHT22;15074;50.940;5.282;2023-08-06T02:57:34;14.80;99.90
27667;DHT22;15074;50.940;5.282;2023-08-06T03:00:00;14.80;99.90
27667;DHT22;15074;50.940;5.282;2023-08-06T03:02:25;14.80;99.90
27667;DHT22;15074;50.940;5.282;2023-08-06T03:04:51;14.80;99.90
27667;DHT22;15074;50.940;5.282;2023-08-06T03:07:16;14.80;99.90
27667;DHT22;15074;50.940;5.282;2023-08-06T03:09:42;14.90;99.90
27667;DHT22;15074;50.940;5.282;2023-08-06T03:12:08;15.00;99.90
27667;DHT22;15074;50.940;5.282;2023-08-06T03:14:33;15.00;99.90
27667;DHT22;15074;50.940;5.282;2023-08-06T03:16:59;15.00;99.90
27667;DHT22;15074;50.940;5.282;2023-08-06T03:19:25;15.10;99.90
27667;DHT22;15074;50.940;5.282;2023-08-06T03:21:50;15.00;99.90
27667;DHT22;15074;50.940;5.282;2023-08-06T03:24:16;15.00;99.90
27667;DHT22;15074;50.940;5.282;2023-08-06T03:26:41;15.00;99.90
27667;DHT22;15074;50.940;5.282;2023-08-06T03:29:07;14.90;99.90
27667;DHT22;15074;50.940;5.282;2023-08-06T03:31:33;14.90;99.90
27667;DHT22;15074;50.940;5.282;2023-08-06T03:33:58;15.00;99.90
27667;DHT22;15074;50.940;5.282;2023-08-06T03:36:24;15.00;99.90
27667;DHT22;15074;50.940;5.282;2023-08-06T03:38:49;15.00;99.90
27667;DHT22;15074;50.940;5.282;2023-08-06T03:41:15;15.10;99.90
27667;DHT22;15074;50.940;5.282;2023-08-06T03:43:41;15.10;99.90
27667;DHT22;15074;50.940;5.282;2023-08-06T03:46:06;15.10;99.90
27667;DHT22;15074;50.940;5.282;2023-08-06T03:48:32;15.10;99.90
27667;DHT22;15074;50.940;5.282;2023-08-06T03:50:57;15.10;99.90
27667;DHT22;15074;50.940;5.282;2023-08-06T03:53:26;15.20;99.90
27667;DHT22;15074;50.940;5.282;2023-08-06T03:55:51;15.20;99.90
27667;DHT22;15074;50.940;5.282;2023-08-06T03:58:17;15.10;99.90
27667;DHT22;15074;50.940;5.282;2023-08-06T04:00:42;15.10;99.90
27667;DHT22;15074;50.940;5.282;2023-08-06T04:03:08;15.10;99.90
27667;DHT22;15074;50.940;5.282;2023-08-06T04:05:34;15.20;99.90
27667;DHT22;15074;50.940;5.282;2023-08-06T04:07:59;15.20;99.90
27667;DHT22;15074;50.940;5.282;2023-08-06T04:10:25;15.20;99.90
27667;DHT22;15074;50.940;5.282;2023-08-06T04:12:51;15.30;99.90
27667;DHT22;15074;50.940;5.282;2023-08-06T04:15:17;15.30;99.90
27667;DHT22;15074;50.940;5.282;2023-08-06T04:17:43;15.30;99.90
27667;DHT22;15074;50.940;5.282;2023-08-06T04:20:08;15.40;99.90
27667;DHT22;15074;50.940;5.282;2023-08-06T04:22:34;15.50;99.90
27667;DHT22;15074;50.940;5.282;2023-08-06T04:25:00;15.50;99.90
27667;DHT22;15074;50.940;5.282;2023-08-06T04:27:25;15.50;99.90
27667;DHT22;15074;50.940;5.282;2023-08-06T04:29:51;15.50;99.90
27667;DHT22;15074;50.940;5.282;2023-08-06T04:32:17;15.50;99.90
27667;DHT22;15074;50.940;5.282;2023-08-06T04:34:44;15.40;99.90
27667;DHT22;15074;50.940;5.282;2023-08-06T04:37:10;15.50;99.90
27667;DHT22;15074;50.940;5.282;2023-08-06T04:39:36;15.50;99.90
27667;DHT22;15074;50.940;5.282;2023-08-06T04:42:01;15.40;99.90
27667;DHT22;15074;50.940;5.282;2023-08-06T04:44:27;15.50;99.90
27667;DHT22;15074;50.940;5.282;2023-08-06T04:46:53;15.50;99.90
27667;DHT22;15074;50.940;5.282;2023-08-06T04:49:20;15.50;99.90
27667;DHT22;15074;50.940;5.282;2023-08-06T04:51:46;15.50;99.90
27667;DHT22;15074;50.940;5.282;2023-08-06T04:54:12;15.50;99.90
27667;DHT22;15074;50.940;5.282;2023-08-06T04:56:37;15.50;99.90
27667;DHT22;15074;50.940;5.282;2023-08-06T04:59:03;15.40;99.90
27667;DHT22;15074;50.940;5.282;2023-08-06T05:01:29;15.50;99.90
27667;DHT22;15074;50.940;5.282;2023-08-06T05:03:54;15.50;99.90
27667;DHT22;15074;50.940;5.282;2023-08-06T05:06:20;15.50;99.90
27667;DHT22;15074;50.940;5.282;2023-08-06T05:08:45;15.50;99.90
27667;DHT22;15074;50.940;5.282;2023-08-06T05:11:11;15.50;99.90
27667;DHT22;15074;50.940;5.282;2023-08-06T05:13:37;15.40;99.90
27667;DHT22;15074;50.940;5.282;2023-08-06T05:16:02;15.40;99.90
27667;DHT22;15074;50.940;5.282;2023-08-06T05:18:28;15.50;99.90
27667;DHT22;15074;50.940;5.282;2023-08-06T05:20:55;15.60;99.90
27667;DHT22;15074;50.940;5.282;2023-08-06T05:23:21;15.60;99.90
27667;DHT22;15074;50.940;5.282;2023-08-06T05:25:47;15.60;99.90
27667;DHT22;15074;50.940;5.282;2023-08-06T05:28:12;15.60;99.90
27667;DHT22;15074;50.940;5.282;2023-08-06T05:30:41;15.60;99.90
27667;DHT22;15074;50.940;5.282;2023-08-06T05:33:07;15.50;99.90
27667;DHT22;15074;50.940;5.282;2023-08-06T05:35:32;15.60;99.90
27667;DHT22;15074;50.940;5.282;2023-08-06T05:37:58;15.60;99.90
27667;DHT22;15074;50.940;5.282;2023-08-06T05:40:24;15.50;99.90
27667;DHT22;15074;50.940;5.282;2023-08-06T05:42:53;15.50;99.90
27667;DHT22;15074;50.940;5.282;2023-08-06T05:45:19;15.60;99.90
27667;DHT22;15074;50.940;5.282;2023-08-06T05:47:45;15.50;99.90
27667;DHT22;15074;50.940;5.282;2023-08-06T05:50:11;15.40;99.90
27667;DHT22;15074;50.940;5.282;2023-08-06T05:52:36;15.40;99.90
27667;DHT22;15074;50.940;5.282;2023-08-06T05:55:02;15.40;99.90
27667;DHT22;15074;50.940;5.282;2023-08-06T05:57:28;15.50;99.90
27667;DHT22;15074;50.940;5.282;2023-08-06T05:59:54;15.30;99.90
27667;DHT22;15074;50.940;5.282;2023-08-06T06:02:19;15.30;99.90
27667;DHT22;15074;50.940;5.282;2023-08-06T06:04:45;15.30;99.90
27667;DHT22;15074;50.940;5.282;2023-08-06T06:07:10;15.30;99.90
27667;DHT22;15074;50.940;5.282;2023-08-06T06:09:36;15.30;99.90
27667;DHT22;15074;50.940;5.282;2023-08-06T06:12:02;15.20;99.90
27667;DHT22;15074;50.940;5.282;2023-08-06T06:14:27;15.30;99.90
27667;DHT22;15074;50.940;5.282;2023-08-06T06:16:53;15.20;99.90
27667;DHT22;15074;50.940;5.282;2023-08-06T06:19:19;15.10;99.90
27667;DHT22;15074;50.940;5.282;2023-08-06T06:21:44;14.80;99.90
27667;DHT22;15074;50.940;5.282;2023-08-06T06:24:10;14.70;99.90
27667;DHT22;15074;50.940;5.282;2023-08-06T06:26:35;14.60;99.90
27667;DHT22;15074;50.940;5.282;2023-08-06T06:29:01;14.60;99.90
27667;DHT22;15074;50.940;5.282;2023-08-06T06:31:27;14.50;99.90
27667;DHT22;15074;50.940;5.282;2023-08-06T06:33:53;14.30;99.90
27667;DHT22;15074;50.940;5.282;2023-08-06T06:36:20;14.30;99.90
27667;DHT22;15074;50.940;5.282;2023-08-06T06:38:45;14.20;99.90
27667;DHT22;15074;50.940;5.282;2023-08-06T06:41:11;14.10;99.90
27667;DHT22;15074;50.940;5.282;2023-08-06T06:43:37;14.10;99.90
27667;DHT22;15074;50.940;5.282;2023-08-06T06:46:05;14.10;99.90
27667;DHT22;15074;50.940;5.282;2023-08-06T06:48:31;14.10;99.90
27667;DHT22;15074;50.940;5.282;2023-08-06T06:50:58;14.10;99.90
27667;DHT22;15074;50.940;5.282;2023-08-06T06:53:24;14.10;99.90
27667;DHT22;15074;50.940;5.282;2023-08-06T06:56:11;14.20;99.90
27667;DHT22;15074;50.940;5.282;2023-08-06T06:58:36;14.20;99.90
27667;DHT22;15074;50.940;5.282;2023-08-06T07:01:04;14.20;99.90
27667;DHT22;15074;50.940;5.282;2023-08-06T07:03:29;14.20;99.90
27667;DHT22;15074;50.940;5.282;2023-08-06T07:05:58;14.20;99.90
27667;DHT22;15074;50.940;5.282;2023-08-06T07:08:24;14.20;99.90
27667;DHT22;15074;50.940;5.282;2023-08-06T07:10:50;14.30;99.90
27667;DHT22;15074;50.940;5.282;2023-08-06T07:13:16;14.40;99.90
27667;DHT22;15074;50.940;5.282;2023-08-06T07:15:42;14.50;99.90
27667;DHT22;15074;50.940;5.282;2023-08-06T07:18:07;14.60;99.90
27667;DHT22;15074;50.940;5.282;2023-08-06T07:20:33;14.60;99.90
27667;DHT22;15074;50.940;5.282;2023-08-06T07:23:00;14.70;99.90
27667;DHT22;15074;50.940;5.282;2023-08-06T07:25:25;14.70;99.90
27667;DHT22;15074;50.940;5.282;2023-08-06T07:27:51;14.70;99.90
27667;DHT22;15074;50.940;5.282;2023-08-06T07:30:17;14.70;99.90
27667;DHT22;15074;50.940;5.282;2023-08-06T07:32:43;14.70;99.90
27667;DHT22;15074;50.940;5.282;2023-08-06T07:35:08;14.70;99.90
27667;DHT22;15074;50.940;5.282;2023-08-06T07:37:38;14.70;99.90
27667;DHT22;15074;50.940;5.282;2023-08-06T07:40:04;14.70;99.90
27667;DHT22;15074;50.940;5.282;2023-08-06T07:42:30;14.60;99.90
27667;DHT22;15074;50.940;5.282;2023-08-06T07:44:57;14.70;99.90
27667;DHT22;15074;50.940;5.282;2023-08-06T07:47:23;14.60;99.90
27667;DHT22;15074;50.940;5.282;2023-08-06T07:49:49;14.50;99.90
27667;DHT22;15074;50.940;5.282;2023-08-06T07:52:15;14.60;99.90
27667;DHT22;15074;50.940;5.282;2023-08-06T07:54:41;14.60;99.90
27667;DHT22;15074;50.940;5.282;2023-08-06T07:57:06;14.60;99.90
27667;DHT22;15074;50.940;5.282;2023-08-06T07:59:32;14.60;99.90
27667;DHT22;15074;50.940;5.282;2023-08-06T08:01:58;14.60;99.90
27667;DHT22;15074;50.940;5.282;2023-08-06T08:04:24;14.60;99.90
27667;DHT22;15074;50.940;5.282;2023-08-06T08:06:49;14.70;99.90
27667;DHT22;15074;50.940;5.282;2023-08-06T08:09:15;14.70;99.90
27667;DHT22;15074;50.940;5.282;2023-08-06T08:11:41;14.60;99.90
27667;DHT22;15074;50.940;5.282;2023-08-06T08:14:07;14.60;99.90
27667;DHT22;15074;50.940;5.282;2023-08-06T08:16:33;14.60;99.90
27667;DHT22;15074;50.940;5.282;2023-08-06T08:18:59;14.70;99.90
27667;DHT22;15074;50.940;5.282;2023-08-06T08:21:25;14.70;99.90
27667;DHT22;15074;50.940;5.282;2023-08-06T08:23:51;14.60;99.90
27667;DHT22;15074;50.940;5.282;2023-08-06T08:26:17;14.60;99.90
27667;DHT22;15074;50.940;5.282;2023-08-06T08:28:43;14.60;99.90
27667;DHT22;15074;50.940;5.282;2023-08-06T08:31:09;14.70;99.90
27667;DHT22;15074;50.940;5.282;2023-08-06T08:33:35;14.60;99.90
27667;DHT22;15074;50.940;5.282;2023-08-06T08:36:00;14.60;99.90
27667;DHT22;15074;50.940;5.282;2023-08-06T08:38:26;14.70;99.90
27667;DHT22;15074;50.940;5.282;2023-08-06T08:40:53;14.70;99.90
27667;DHT22;15074;50.940;5.282;2023-08-06T08:43:23;14.60;99.90
27667;DHT22;15074;50.940;5.282;2023-08-06T08:45:53;14.60;99.90
27667;DHT22;15074;50.940;5.282;2023-08-06T08:48:21;14.60;99.90
27667;DHT22;15074;50.940;5.282;2023-08-06T08:50:49;14.70;99.90
27667;DHT22;15074;50.940;5.282;2023-08-06T08:53:16;14.70;99.90
27667;DHT22;15074;50.940;5.282;2023-08-06T08:55:43;14.60;99.90
27667;DHT22;15074;50.940;5.282;2023-08-06T08:58:10;14.60;99.90
27667;DHT22;15074;50.940;5.282;2023-08-06T09:00:36;14.60;99.90
27667;DHT22;15074;50.940;5.282;2023-08-06T09:03:06;14.60;99.90
27667;DHT22;15074;50.940;5.282;2023-08-06T09:05:32;14.60;99.90
27667;DHT22;15074;50.940;5.282;2023-08-06T09:08:11;14.60;99.90
27667;DHT22;15074;50.940;5.282;2023-08-06T09:10:39;14.70;99.90
27667;DHT22;15074;50.940;5.282;2023-08-06T09:13:05;14.80;99.90
27667;DHT22;15074;50.940;5.282;2023-08-06T09:15:32;14.90;99.90
27667;DHT22;15074;50.940;5.282;2023-08-06T09:17:58;14.90;99.90
27667;DHT22;15074;50.940;5.282;2023-08-06T09:20:24;15.00;99.90
27667;DHT22;15074;50.940;5.282;2023-08-06T09:22:53;15.00;99.90
27667;DHT22;15074;50.940;5.282;2023-08-06T09:25:23;15.10;99.90
27667;DHT22;15074;50.940;5.282;2023-08-06T09:27:52;15.10;99.90
27667;DHT22;15074;50.940;5.282;2023-08-06T09:30:35;15.20;99.90
27667;DHT22;15074;50.940;5.282;2023-08-06T09:33:01;15.30;99.90
27667;DHT22;15074;50.940;5.282;2023-08-06T09:35:30;15.30;99.90
27667;DHT22;15074;50.940;5.282;2023-08-06T09:38:09;15.30;99.90
27667;DHT22;15074;50.940;5.282;2023-08-06T09:40:38;15.20;99.90
27667;DHT22;15074;50.940;5.282;2023-08-06T09:43:04;15.10;99.90
27667;DHT22;15074;50.940;5.282;2023-08-06T09:45:34;15.20;99.90
27667;DHT22;15074;50.940;5.282;2023-08-06T09:48:03;15.40;99.90
27667;DHT22;15074;50.940;5.282;2023-08-06T09:50:31;15.30;99.90
27667;DHT22;15074;50.940;5.282;2023-08-06T09:52:58;15.30;99.90
27667;DHT22;15074;50.940;5.282;2023-08-06T09:55:24;15.30;99.90
27667;DHT22;15074;50.940;5.282;2023-08-06T09:57:52;15.30;99.90
27667;DHT22;15074;50.940;5.282;2023-08-06T10:00:18;15.30;99.90
27667;DHT22;15074;50.940;5.282;2023-08-06T10:02:44;15.40;99.90
27667;DHT22;15074;50.940;5.282;2023-08-06T10:05:10;15.50;99.90
27667;DHT22;15074;50.940;5.282;2023-08-06T10:07:36;15.60;99.90
27667;DHT22;15074;50.940;5.282;2023-08-06T10:10:05;15.60;99.90
27667;DHT22;15074;50.940;5.282;2023-08-06T10:12:40;15.50;99.90
27667;DHT22;15074;50.940;5.282;2023-08-06T10:15:10;15.50;99.90
27667;DHT22;15074;50.940;5.282;2023-08-06T10:17:38;15.50;99.90
27667;DHT22;15074;50.940;5.282;2023-08-06T10:20:05;15.50;99.90
27667;DHT22;15074;50.940;5.282;2023-08-06T10:22:32;15.50;99.90
27667;DHT22;15074;50.940;5.282;2023-08-06T10:25:00;15.40;99.90
27667;DHT22;15074;50.940;5.282;2023-08-06T10:27:56;15.30;99.90
27667;DHT22;15074;50.940;5.282;2023-08-06T10:30:30;15.20;99.90
27667;DHT22;15074;50.940;5.282;2023-08-06T10:32:58;15.00;99.90
27667;DHT22;15074;50.940;5.282;2023-08-06T10:35:37;15.00;99.90
27667;DHT22;15074;50.940;5.282;2023-08-06T10:38:09;15.10;99.90
27667;DHT22;15074;50.940;5.282;2023-08-06T10:40:36;15.20;99.90
27667;DHT22;15074;50.940;5.282;2023-08-06T10:43:03;15.10;99.90
27667;DHT22;15074;50.940;5.282;2023-08-06T10:45:29;15.00;99.90
27667;DHT22;15074;50.940;5.282;2023-08-06T10:47:56;14.90;99.90
27667;DHT22;15074;50.940;5.282;2023-08-06T10:50:26;14.90;99.90
27667;DHT22;15074;50.940;5.282;2023-08-06T10:52:52;14.90;99.90
27667;DHT22;15074;50.940;5.282;2023-08-06T10:55:28;14.80;99.90
27667;DHT22;15074;50.940;5.282;2023-08-06T10:57:54;14.80;99.90
27667;DHT22;15074;50.940;5.282;2023-08-06T11:00:24;14.80;99.90
27667;DHT22;15074;50.940;5.282;2023-08-06T11:02:51;14.80;99.90
27667;DHT22;15074;50.940;5.282;2023-08-06T11:05:17;15.00;99.90
27667;DHT22;15074;50.940;5.282;2023-08-06T11:07:43;15.10;99.90
27667;DHT22;15074;50.940;5.282;2023-08-06T11:10:11;15.20;99.90
27667;DHT22;15074;50.940;5.282;2023-08-06T11:12:37;15.10;99.90
27667;DHT22;15074;50.940;5.282;2023-08-06T11:15:03;15.20;99.90
27667;DHT22;15074;50.940;5.282;2023-08-06T11:17:31;15.30;99.90
27667;DHT22;15074;50.940;5.282;2023-08-06T11:20:04;15.30;99.90
27667;DHT22;15074;50.940;5.282;2023-08-06T11:22:30;15.10;99.90
27667;DHT22;15074;50.940;5.282;2023-08-06T11:24:56;15.10;99.90
27667;DHT22;15074;50.940;5.282;2023-08-06T11:27:22;15.00;99.90
27667;DHT22;15074;50.940;5.282;2023-08-06T11:29:48;14.90;99.90
27667;DHT22;15074;50.940;5.282;2023-08-06T11:32:13;14.90;99.90
27667;DHT22;15074;50.940;5.282;2023-08-06T11:34:39;14.90;99.90
27667;DHT22;15074;50.940;5.282;2023-08-06T11:37:06;14.90;99.90
27667;DHT22;15074;50.940;5.282;2023-08-06T11:39:33;15.10;99.90
27667;DHT22;15074;50.940;5.282;2023-08-06T11:41:59;15.20;99.90
27667;DHT22;15074;50.940;5.282;2023-08-06T11:44:30;15.40;99.90
27667;DHT22;15074;50.940;5.282;2023-08-06T11:46:57;15.60;99.90
27667;DHT22;15074;50.940;5.282;2023-08-06T11:49:48;15.70;99.90
27667;DHT22;15074;50.940;5.282;2023-08-06T11:52:20;15.90;99.90
27667;DHT22;15074;50.940;5.282;2023-08-06T11:55:07;16.00;99.90
27667;DHT22;15074;50.940;5.282;2023-08-06T11:57:35;16.00;99.90
27667;DHT22;15074;50.940;5.282;2023-08-06T12:00:09;15.90;99.90
27667;DHT22;15074;50.940;5.282;2023-08-06T12:02:35;15.60;99.90
27667;DHT22;15074;50.940;5.282;2023-08-06T12:05:03;15.40;99.90
27667;DHT22;15074;50.940;5.282;2023-08-06T12:07:31;15.40;99.90
27667;DHT22;15074;50.940;5.282;2023-08-06T12:09:58;15.50;99.90
27667;DHT22;15074;50.940;5.282;2023-08-06T12:12:24;15.50;99.90
27667;DHT22;15074;50.940;5.282;2023-08-06T12:14:50;15.50;99.90
27667;DHT22;15074;50.940;5.282;2023-08-06T12:17:16;15.40;99.90
27667;DHT22;15074;50.940;5.282;2023-08-06T12:19:42;15.30;99.90
27667;DHT22;15074;50.940;5.282;2023-08-06T12:22:07;15.40;99.90
27667;DHT22;15074;50.940;5.282;2023-08-06T12:24:33;15.20;99.90
27667;DHT22;15074;50.940;5.282;2023-08-06T12:26:59;15.10;99.90
27667;DHT22;15074;50.940;5.282;2023-08-06T12:29:27;15.20;99.90
27667;DHT22;15074;50.940;5.282;2023-08-06T12:31:53;15.30;99.90
27667;DHT22;15074;50.940;5.282;2023-08-06T12:34:19;15.40;99.90
27667;DHT22;15074;50.940;5.282;2023-08-06T12:36:45;15.40;99.90
27667;DHT22;15074;50.940;5.282;2023-08-06T12:39:10;15.40;99.90
27667;DHT22;15074;50.940;5.282;2023-08-06T12:41:36;15.30;99.90
27667;DHT22;15074;50.940;5.282;2023-08-06T12:44:02;15.30;99.90
27667;DHT22;15074;50.940;5.282;2023-08-06T12:46:27;15.40;99.90
27667;DHT22;15074;50.940;5.282;2023-08-06T12:48:53;15.40;99.90
27667;DHT22;15074;50.940;5.282;2023-08-06T12:51:19;15.40;99.90
27667;DHT22;15074;50.940;5.282;2023-08-06T12:53:44;15.40;99.90
27667;DHT22;15074;50.940;5.282;2023-08-06T12:56:10;15.60;99.90
27667;DHT22;15074;50.940;5.282;2023-08-06T12:58:35;15.60;99.90
27667;DHT22;15074;50.940;5.282;2023-08-06T13:01:01;15.40;99.90
27667;DHT22;15074;50.940;5.282;2023-08-06T13:03:27;15.40;99.90
27667;DHT22;15074;50.940;5.282;2023-08-06T13:05:53;15.50;99.90
27667;DHT22;15074;50.940;5.282;2023-08-06T13:08:18;15.60;99.90
27667;DHT22;15074;50.940;5.282;2023-08-06T13:10:44;15.60;99.90
27667;DHT22;15074;50.940;5.282;2023-08-06T13:13:10;15.50;99.90
27667;DHT22;15074;50.940;5.282;2023-08-06T13:15:35;15.60;99.90
27667;DHT22;15074;50.940;5.282;2023-08-06T13:18:01;15.40;99.90
27667;DHT22;15074;50.940;5.282;2023-08-06T13:20:29;15.30;99.90
27667;DHT22;15074;50.940;5.282;2023-08-06T13:22:55;15.20;99.90
27667;DHT22;15074;50.940;5.282;2023-08-06T13:25:21;15.00;99.90
27667;DHT22;15074;50.940;5.282;2023-08-06T13:27:47;14.90;99.90
27667;DHT22;15074;50.940;5.282;2023-08-06T13:30:13;15.00;99.90
27667;DHT22;15074;50.940;5.282;2023-08-06T13:32:39;14.90;99.90
27667;DHT22;15074;50.940;5.282;2023-08-06T13:35:05;14.90;99.90
27667;DHT22;15074;50.940;5.282;2023-08-06T13:37:30;14.90;99.90
27667;DHT22;15074;50.940;5.282;2023-08-06T13:39:56;14.90;99.90
27667;DHT22;15074;50.940;5.282;2023-08-06T13:42:22;14.80;99.90
27667;DHT22;15074;50.940;5.282;2023-08-06T13:44:48;14.80;99.90
27667;DHT22;15074;50.940;5.282;2023-08-06T13:47:13;14.80;99.90
27667;DHT22;15074;50.940;5.282;2023-08-06T13:49:39;14.80;99.90
27667;DHT22;15074;50.940;5.282;2023-08-06T13:52:05;14.80;99.90
27667;DHT22;15074;50.940;5.282;2023-08-06T13:54:30;14.80;99.90
27667;DHT22;15074;50.940;5.282;2023-08-06T13:56:56;14.80;99.90
27667;DHT22;15074;50.940;5.282;2023-08-06T13:59:22;14.70;99.90
27667;DHT22;15074;50.940;5.282;2023-08-06T14:01:50;14.80;99.90
27667;DHT22;15074;50.940;5.282;2023-08-06T14:04:15;14.80;99.90
27667;DHT22;15074;50.940;5.282;2023-08-06T14:06:41;14.80;99.90
27667;DHT22;15074;50.940;5.282;2023-08-06T14:09:07;14.70;99.90
27667;DHT22;15074;50.940;5.282;2023-08-06T14:11:33;14.70;99.90
27667;DHT22;15074;50.940;5.282;2023-08-06T14:13:59;14.80;99.90
27667;DHT22;15074;50.940;5.282;2023-08-06T14:16:25;14.80;99.90
27667;DHT22;15074;50.940;5.282;2023-08-06T14:18:51;14.90;99.90
27667;DHT22;15074;50.940;5.282;2023-08-06T14:21:16;14.90;99.90
27667;DHT22;15074;50.940;5.282;2023-08-06T14:23:42;14.90;99.90
27667;DHT22;15074;50.940;5.282;2023-08-06T14:26:08;15.00;99.90
27667;DHT22;15074;50.940;5.282;2023-08-06T14:28:37;15.00;99.90
27667;DHT22;15074;50.940;5.282;2023-08-06T14:31:03;15.00;99.90
27667;DHT22;15074;50.940;5.282;2023-08-06T14:33:28;15.00;99.90
27667;DHT22;15074;50.940;5.282;2023-08-06T14:35:54;15.10;99.90
27667;DHT22;15074;50.940;5.282;2023-08-06T14:38:19;15.10;99.90
27667;DHT22;15074;50.940;5.282;2023-08-06T14:40:45;15.10;99.90
27667;DHT22;15074;50.940;5.282;2023-08-06T14:43:11;15.00;99.90
27667;DHT22;15074;50.940;5.282;2023-08-06T14:45:38;14.90;99.90
27667;DHT22;15074;50.940;5.282;2023-08-06T14:48:04;15.00;99.90
27667;DHT22;15074;50.940;5.282;2023-08-06T14:50:30;14.90;99.90
27667;DHT22;15074;50.940;5.282;2023-08-06T14:52:56;14.90;99.90
27667;DHT22;15074;50.940;5.282;2023-08-06T14:55:25;14.90;99.90
27667;DHT22;15074;50.940;5.282;2023-08-06T14:57:51;14.70;99.90
27667;DHT22;15074;50.940;5.282;2023-08-06T15:00:17;14.60;99.90
27667;DHT22;15074;50.940;5.282;2023-08-06T15:02:43;14.60;99.90
27667;DHT22;15074;50.940;5.282;2023-08-06T15:05:09;14.40;99.90
27667;DHT22;15074;50.940;5.282;2023-08-06T15:07:34;14.40;99.90
27667;DHT22;15074;50.940;5.282;2023-08-06T15:10:01;14.40;99.90
27667;DHT22;15074;50.940;5.282;2023-08-06T15:12:28;14.30;99.90
27667;DHT22;15074;50.940;5.282;2023-08-06T15:14:53;14.30;99.90
27667;DHT22;15074;50.940;5.282;2023-08-06T15:17:22;14.40;99.90
27667;DHT22;15074;50.940;5.282;2023-08-06T15:19:48;14.40;99.90
27667;DHT22;15074;50.940;5.282;2023-08-06T15:22:14;14.40;99.90
27667;DHT22;15074;50.940;5.282;2023-08-06T15:24:39;14.50;99.90
27667;DHT22;15074;50.940;5.282;2023-08-06T15:27:08;14.40;99.90
27667;DHT22;15074;50.940;5.282;2023-08-06T15:29:34;14.60;99.90